aviador You're here:

KLIC Decoded Metar

LIMON in CO, USA
Report Time2018-02-25 14:55:00
UTC Time2018-02-25 15:22:03
Flight Rules vfr VFR
Wind300° at 10 kt
W.Decomp.*RWY 34: 6.3 kt HW 7.8 kt LCW
W.Rank300° ranks 14
Current wind is above 300° avg. (7.7)
Visibility9999 m
Phenomena:N/A
Clouds:N/A
Expected CloudBase > 2,000 ft AGL from Temp-Dew spread
CeilingNone
Temp-7°C (ISA -11)
Dew Point-12°C (68% RH)
AAT-13.8°C
QNH1013 hPa
Density Alt4,006 ft
Elevation5,348 ft
Report Wrong Elevation
Raw Report
METAR KLIC 251455Z AUTO 30010KT 10SM CLR M07/M12 A2991 RMK AO2 SLP177
T10721122 53013=

Extra information for KLIC:More info

Metar Taf Metar & Taf Last 4 Metars F.Rules Stats Wind Profile Meteogram Temp Stats Airport Information Weather charts Add Link Nearby VenuesMetar ALERT Operation Metar Decoded Social comments

AIRNAV info for KLIC